Time;durP1;ratioP1;P1;durP2;ratioP2;P2;SDS_P1;SDS_P2;PMS_P1;PMS_P2;Temp;Humidity;BMP_temperature;BMP_pressure;BME280_temperature;BME280_humidity;BME280_pressure;Samples;Min_cycle;Max_cycle;Signal;HPM_P1;HPM_P2
2022/04/13 00:01:14;;;;;;;4.53;1.73;;;;;;;20.76;44.79;101702.09;4215689;28;20048;-62
2022/04/13 00:03:16;;;;;;;4.32;1.63;;;;;;;20.74;45.00;101698.69;4214395;28;20036;-63
2022/04/13 00:05:17;;;;;;;3.83;1.50;;;;;;;20.74;44.86;101701.47;4215778;28;20028;-63
2022/04/13 00:07:19;;;;;;;2.28;1.60;;;;;;;20.75;45.22;101705.94;4214614;28;20035;-63
2022/04/13 00:09:20;;;;;;;3.40;1.63;;;;;;;20.76;44.80;101695.69;4214896;28;20036;-64
2022/04/13 00:11:22;;;;;;;2.13;1.50;;;;;;;20.74;45.38;101709.81;4197163;28;20036;-63
2022/04/13 00:13:23;;;;;;;3.58;1.70;;;;;;;20.75;45.13;101705.94;4215774;28;20028;-64
2022/04/13 00:15:25;;;;;;;3.42;1.42;;;;;;;20.74;45.22;101709.81;4215406;28;20082;-63
2022/04/13 00:17:26;;;;;;;2.70;1.38;;;;;;;20.75;45.01;101708.72;4215795;28;20410;-63
2022/04/13 00:19:27;;;;;;;3.33;1.95;;;;;;;20.75;45.12;101705.94;4214922;28;20552;-63
2022/04/13 00:21:32;;;;;;;2.92;1.60;;;;;;;20.76;44.90;101713.22;4214854;28;20104;-63
2022/04/13 00:23:33;;;;;;;2.90;1.70;;;;;;;20.75;45.25;101711.50;4215887;28;20085;-63
2022/04/13 00:25:38;;;;;;;2.22;1.58;;;;;;;20.76;45.32;101721.56;4215642;28;20036;-63
2022/04/13 00:27:40;;;;;;;3.28;1.67;;;;;;;20.75;45.25;101725.41;4215789;28;20425;-63
2022/04/13 00:29:41;;;;;;;5.57;1.63;;;;;;;20.78;44.61;101733.25;4212838;28;20380;-64
2022/04/13 00:31:43;;;;;;;2.60;1.70;;;;;;;20.79;44.84;101734.91;4197219;28;20045;-66
2022/04/13 00:33:44;;;;;;;3.70;1.70;;;;;;;20.78;45.14;101732.41;4197585;28;20040;-62
2022/04/13 00:35:45;;;;;;;2.40;1.38;;;;;;;20.79;45.25;101737.69;4197683;28;20041;-63
2022/04/13 00:37:47;;;;;;;3.45;1.50;;;;;;;20.79;44.91;101740.47;4197262;28;20044;-63
2022/04/13 00:39:48;;;;;;;2.60;1.45;;;;;;;20.78;44.96;101736.03;4179825;28;20465;-63
2022/04/13 00:42:07;;;;;;;3.78;1.70;;;;;;;20.77;44.99;101741.84;4197256;28;20098;-63
2022/04/13 00:44:10;;;;;;;1.98;1.38;;;;;;;20.79;45.16;101746.03;4198399;28;20557;-64
2022/04/13 00:46:12;;;;;;;2.20;1.40;;;;;;;20.81;45.35;101743.84;4198172;28;20119;-62
2022/04/13 00:48:42;;;;;;;2.85;1.50;;;;;;;20.79;45.31;101746.03;4199649;28;20109;-63
2022/04/13 00:50:44;;;;;;;1.67;1.38;;;;;;;20.83;45.06;101742.75;4199555;28;20044;-63
2022/04/13 00:52:50;;;;;;;2.03;1.60;;;;;;;20.85;45.16;101740.53;4200069;28;20049;-63
2022/04/13 00:54:54;;;;;;;2.42;1.50;;;;;;;20.86;45.26;101742.25;4198962;28;20094;-64
2022/04/13 00:56:59;;;;;;;6.38;1.90;;;;;;;20.86;45.06;101745.03;4198591;28;20479;-63
2022/04/13 00:59:07;;;;;;;2.67;1.63;;;;;;;20.74;45.22;101726.50;4197517;28;20029;-65
2022/04/13 01:01:09;;;;;;;2.10;1.23;;;;;;;20.75;45.00;101733.75;4199427;28;20032;-64
2022/04/13 01:03:27;;;;;;;2.70;1.40;;;;;;;20.86;44.92;101748.63;4201596;28;20410;-65
2022/04/13 01:05:33;;;;;;;2.85;1.40;;;;;;;20.88;45.05;101745.59;4185038;28;20041;-65
2022/04/13 01:07:38;;;;;;;3.55;1.83;;;;;;;20.87;45.19;101741.13;4201036;28;20044;-64
2022/04/13 01:09:40;;;;;;;3.58;1.60;;;;;;;20.86;44.91;101736.69;4200559;28;20098;-64
2022/04/13 01:11:42;;;;;;;4.70;1.90;;;;;;;20.87;45.38;101743.91;4180964;28;20049;-65
2022/04/13 01:13:44;;;;;;;3.40;1.58;;;;;;;20.89;45.30;101733.34;4197970;28;20037;-65
2022/04/13 01:15:46;;;;;;;4.85;1.50;;;;;;;20.90;45.15;101732.28;4196869;28;20446;-64
2022/04/13 01:17:48;;;;;;;2.70;1.63;;;;;;;20.90;45.00;101735.88;4197774;28;20365;-64
2022/04/13 01:19:50;;;;;;;2.08;1.70;;;;;;;20.91;44.35;101742.28;4197226;28;20090;-63
2022/04/13 01:21:58;;;;;;;3.50;1.83;;;;;;;20.86;44.55;101723.59;4196597;28;20049;-64
2022/04/13 01:24:02;;;;;;;2.38;1.30;;;;;;;20.93;44.23;101740.06;4198045;28;20040;-64
2022/04/13 01:26:04;;;;;;;4.30;1.42;;;;;;;20.93;44.12;101738.13;4196601;28;20545;-64
2022/04/13 01:28:09;;;;;;;2.47;1.58;;;;;;;20.84;44.37;101722.16;4196103;28;20094;-64
2022/04/13 01:30:14;;;;;;;3.28;1.90;;;;;;;20.96;44.31;101739.56;4198001;28;20041;-63
2022/04/13 01:32:15;;;;;;;;;;;;;;;20.95;43.77;101738.72;4196817;28;20539;-63
2022/04/13 01:34:17;;;;;;;2.67;1.70;;;;;;;21.01;44.00;101740.44;4198214;28;19913;-63
2022/04/13 01:36:19;;;;;;;3.53;1.88;;;;;;;21.02;43.64;101744.06;4197866;28;20036;-63
2022/04/13 01:38:20;;;;;;;4.00;1.75;;;;;;;20.99;44.22;101736.25;4198834;28;20471;-64
2022/04/13 01:40:24;;;;;;;4.05;1.70;;;;;;;20.96;43.92;101734.84;4197333;28;20048;-64
2022/04/13 01:42:28;;;;;;;4.03;1.77;;;;;;;21.00;43.85;101746.28;4197274;28;20032;-63
2022/04/13 01:44:30;;;;;;;4.43;2.00;;;;;;;20.99;44.02;101744.59;4198073;28;20040;-64
2022/04/13 01:46:32;;;;;;;4.70;1.63;;;;;;;20.98;43.62;101738.22;4198585;28;20041;-64
2022/04/13 01:48:36;;;;;;;4.15;1.35;;;;;;;20.98;44.13;101742.91;4196909;28;20090;-64
2022/04/13 01:50:38;;;;;;;5.93;1.90;;;;;;;20.96;43.96;101739.56;4197062;28;20098;-65
2022/04/13 01:52:52;;;;;;;2.53;1.50;;;;;;;20.99;44.12;101750.19;4197434;28;20423;-64
2022/04/13 01:54:53;;;;;;;3.70;1.52;;;;;;;21.01;43.59;101753.53;4196101;28;20037;-64
2022/04/13 01:56:55;;;;;;;4.40;1.60;;;;;;;21.02;43.50;101749.63;4197577;28;20041;-64
2022/04/13 01:58:57;;;;;;;4.95;1.50;;;;;;;21.02;43.79;101750.47;4197383;28;20090;-64
2022/04/13 02:00:59;;;;;;;2.10;1.35;;;;;;;21.03;43.65;101751.34;4197176;28;20045;-64
2022/04/13 02:03:01;;;;;;;7.55;1.73;;;;;;;21.02;43.96;101750.47;4197466;28;20361;-64
2022/04/13 02:05:03;;;;;;;3.83;1.90;;;;;;;20.92;43.86;101732.84;4196671;28;20086;-64
2022/04/13 02:07:05;;;;;;;4.72;1.63;;;;;;;21.04;43.86;101744.66;4197722;28;20090;-64
2022/04/13 02:09:07;;;;;;;3.55;1.30;;;;;;;21.04;43.73;101748.28;4197318;28;20094;-63
2022/04/13 02:11:08;;;;;;;3.83;1.80;;;;;;;21.06;43.93;101745.22;4179921;28;20044;-64
2022/04/13 02:13:10;;;;;;;2.38;1.63;;;;;;;21.05;43.93;101746.34;4196782;28;20376;-65
2022/04/13 02:15:15;;;;;;;6.20;1.50;;;;;;;21.04;43.97;101747.44;4196658;28;20044;-64
2022/04/13 02:17:16;;;;;;;;;;;;;;;21.04;43.79;101753.84;4197578;28;20469;-63
2022/04/13 02:19:18;;;;;;;3.42;1.40;;;;;;;21.02;43.42;101744.91;4197112;28;20310;-65
2022/04/13 02:21:19;;;;;;;2.95;1.90;;;;;;;21.05;43.70;101744.38;4198492;28;20406;-64
2022/04/13 02:23:21;;;;;;;6.03;1.90;;;;;;;21.05;43.29;101749.13;4196431;28;20036;-62
2022/04/13 02:25:22;;;;;;;137.25;12.32;;;;;;;21.07;43.64;101752.47;4198215;28;20033;-63
2022/04/13 02:27:27;;;;;;;70.70;5.93;;;;;;;21.09;43.25;101755.84;4197562;28;20024;-64
2022/04/13 02:29:31;;;;;;;41.58;4.28;;;;;;;21.10;43.50;101751.94;4197919;28;20041;-67
2022/04/13 02:31:33;;;;;;;72.50;7.43;;;;;;;21.13;43.57;101757.00;4198811;28;20552;-63
2022/04/13 02:33:34;;;;;;;15.55;2.60;;;;;;;21.16;43.67;101752.84;4213399;28;20048;-64
2022/04/13 02:35:38;;;;;;;24.88;3.55;;;;;;;21.16;43.46;101750.88;4217457;28;20105;-64
2022/04/13 02:37:42;;;;;;;20.70;3.10;;;;;;;21.18;43.21;101759.84;4218994;28;20077;-64
2022/04/13 02:39:46;;;;;;;24.17;3.00;;;;;;;21.14;43.12;101758.69;4217690;28;20052;-64
2022/04/13 02:41:47;;;;;;;22.63;2.78;;;;;;;21.16;43.07;101762.03;4217865;28;20040;-64
2022/04/13 02:43:49;;;;;;;30.15;2.78;;;;;;;21.16;43.42;101759.22;4217251;28;20044;-64
2022/04/13 02:45:50;;;;;;;31.20;3.58;;;;;;;21.15;43.11;101754.78;4216863;28;20093;-66
2022/04/13 02:47:52;;;;;;;24.08;2.45;;;;;;;21.16;43.41;101756.44;4215222;28;20048;-63
2022/04/13 02:50:00;;;;;;;14.75;2.30;;;;;;;21.09;43.22;101763.34;4200270;28;21167;-63
2022/04/13 02:52:01;;;;;;;15.65;2.45;;;;;;;21.17;43.33;101751.75;4200390;28;20421;-64
2022/04/13 02:54:06;;;;;;;14.95;2.95;;;;;;;21.15;43.28;101757.56;4201380;28;20086;-65
2022/04/13 02:56:08;;;;;;;12.50;3.08;;;;;;;21.17;42.92;101763.72;4202687;28;20048;-65
2022/04/13 02:58:13;;;;;;;18.80;3.20;;;;;;;21.16;43.24;101755.63;4202267;28;20052;-65
2022/04/13 03:00:16;;;;;;;9.77;2.03;;;;;;;21.19;42.91;101755.09;4202571;28;20036;-65
2022/04/13 03:02:18;;;;;;;21.33;2.72;;;;;;;21.18;42.88;101754.25;4199597;28;20036;-65
2022/04/13 03:04:20;;;;;;;20.13;3.00;;;;;;;21.17;42.85;101752.59;4202615;28;20066;-64
2022/04/13 03:06:22;;;;;;;14.95;2.35;;;;;;;21.19;43.15;101749.53;4216205;28;20040;-65
2022/04/13 03:08:23;;;;;;;11.60;2.70;;;;;;;21.19;42.87;101750.38;4216057;28;20130;-65
2022/04/13 03:10:27;;;;;;;13.45;2.40;;;;;;;21.19;43.22;101753.16;4215932;28;20039;-65
2022/04/13 03:12:28;;;;;;;12.23;2.03;;;;;;;21.17;42.92;101747.03;4216623;28;20040;-65
2022/04/13 03:14:30;;;;;;;11.25;2.33;;;;;;;21.19;42.78;101747.59;4216407;28;20269;-64
2022/04/13 03:16:31;;;;;;;12.85;2.33;;;;;;;21.19;43.06;101744.81;4217817;28;20050;-64
2022/04/13 03:18:33;;;;;;;14.57;2.25;;;;;;;21.20;42.78;101745.63;4216665;28;20101;-65
2022/04/13 03:20:37;;;;;;;8.85;2.63;;;;;;;21.19;42.83;101744.81;4216688;28;20095;-65
2022/04/13 03:22:38;;;;;;;10.18;1.95;;;;;;;21.20;42.92;101740.06;4216866;28;20097;-65
2022/04/13 03:24:41;;;;;;;9.25;2.50;;;;;;;20.97;42.95;101703.13;4216283;28;20097;-65
2022/04/13 03:26:42;;;;;;;6.03;2.00;;;;;;;21.21;42.98;101741.75;4215176;28;20580;-65
2022/04/13 03:28:47;;;;;;;10.80;1.73;;;;;;;21.17;43.10;101735.91;4216125;28;20044;-66
2022/04/13 03:30:49;;;;;;;13.05;2.40;;;;;;;21.21;42.97;101742.63;4214813;28;20376;-67
2022/04/13 03:32:53;;;;;;;11.90;2.40;;;;;;;21.21;42.77;101734.25;4214663;28;20048;-66
2022/04/13 03:34:54;;;;;;;10.93;2.35;;;;;;;21.22;42.58;101744.28;4216019;28;20472;-64
2022/04/13 03:36:57;;;;;;;10.85;1.90;;;;;;;21.19;42.70;101733.66;4216591;28;20425;-65
2022/04/13 03:38:59;;;;;;;7.85;2.00;;;;;;;21.23;42.78;101736.78;4215305;28;20514;-66
2022/04/13 03:41:02;;;;;;;5.95;2.75;;;;;;;21.21;42.78;101731.47;4214503;28;20040;-64
2022/04/13 03:43:04;;;;;;;5.95;1.77;;;;;;;21.19;42.70;101733.66;4216909;28;20556;-65
2022/04/13 03:45:11;;;;;;;3.78;1.70;;;;;;;21.23;42.57;101745.13;4216031;28;20169;-64
2022/04/13 03:47:12;;;;;;;11.27;2.05;;;;;;;21.23;42.89;101734.81;4216280;28;20039;-64
2022/04/13 03:49:14;;;;;;;7.00;2.10;;;;;;;21.18;42.31;101726.44;4216133;28;20104;-65
2022/04/13 03:51:16;;;;;;;8.75;2.00;;;;;;;21.23;42.37;101737.59;4215883;28;20044;-65
2022/04/13 03:53:17;;;;;;;8.10;2.05;;;;;;;21.24;42.55;101730.09;4217420;28;20101;-64
2022/04/13 03:55:22;;;;;;;6.82;2.65;;;;;;;21.25;42.63;101738.16;4215967;28;20028;-66
2022/04/13 03:57:23;;;;;;;3.97;1.85;;;;;;;21.24;42.68;101730.94;4214265;28;20074;-66
2022/04/13 03:59:26;;;;;;;7.85;1.98;;;;;;;21.26;42.63;101733.47;4215920;28;20382;-64
2022/04/13 04:01:31;;;;;;;9.80;2.08;;;;;;;21.27;42.32;101740.72;4217195;28;20081;-65
2022/04/13 04:03:37;;;;;;;6.97;1.90;;;;;;;21.27;42.50;101741.56;4199576;28;20033;-65
2022/04/13 04:05:39;;;;;;;6.68;1.88;;;;;;;21.27;42.24;101738.75;4215657;28;20418;-65
2022/04/13 04:07:40;;;;;;;6.80;2.22;;;;;;;21.27;42.32;101735.97;4203129;28;20094;-65
2022/04/13 04:09:42;;;;;;;12.70;2.25;;;;;;;21.28;42.29;101736.81;4200282;28;20028;-64
2022/04/13 04:11:43;;;;;;;6.38;1.80;;;;;;;21.17;42.54;101721.13;4198707;28;20036;-65
2022/04/13 04:13:45;;;;;;;9.32;1.95;;;;;;;21.26;42.50;101739.88;4199300;28;20094;-64
2022/04/13 04:15:46;;;;;;;8.32;2.38;;;;;;;21.29;42.67;101744.91;4198663;28;20090;-64
2022/04/13 04:17:48;;;;;;;225.50;16.58;;;;;;;21.30;42.77;101746.59;4199164;28;20434;-63
2022/04/13 04:19:49;;;;;;;45.58;5.00;;;;;;;21.29;42.46;101744.91;4198749;28;20037;-64
2022/04/13 04:21:50;;;;;;;18.08;3.25;;;;;;;21.29;43.01;101739.31;4198630;28;20036;-65
2022/04/13 04:23:52;;;;;;;11.52;2.60;;;;;;;21.29;42.88;101739.31;4198095;28;20037;-64
2022/04/13 04:25:53;;;;;;;15.60;3.03;;;;;;;21.29;42.63;101733.75;4198779;28;20045;-64
2022/04/13 04:27:55;;;;;;;19.48;4.30;;;;;;;21.29;42.97;101739.31;4198545;28;20487;-65
2022/04/13 04:29:56;;;;;;;14.38;3.17;;;;;;;21.28;42.96;101736.81;4198137;28;20041;-65
2022/04/13 04:31:59;;;;;;;33.78;16.45;;;;;;;21.29;42.53;101744.91;4198097;28;20052;-65
2022/04/13 04:34:01;;;;;;;53.78;26.63;;;;;;;21.23;42.80;101723.69;4201412;28;20097;-65
2022/04/13 04:36:02;;;;;;;161.82;88.28;;;;;;;21.28;43.03;101742.38;4214187;28;20036;-65
2022/04/13 04:38:03;;;;;;;149.15;78.95;;;;;;;21.29;43.04;101744.06;4214361;28;20097;-65
2022/04/13 04:40:06;;;;;;;169.70;101.28;;;;;;;21.18;43.00;101732.00;4214841;28;20467;-65
2022/04/13 04:42:08;;;;;;;124.93;73.15;;;;;;;21.28;43.13;101743.22;4212769;28;20036;-64
2022/04/13 04:44:11;;;;;;;133.68;75.95;;;;;;;21.29;43.33;101739.31;4213712;28;20044;-65
2022/04/13 04:46:12;;;;;;;124.68;69.95;;;;;;;21.27;43.39;101744.34;4214250;28;20032;-65
2022/04/13 04:48:14;;;;;;;107.50;57.13;;;;;;;21.27;43.51;101741.56;4214334;28;20040;-65
2022/04/13 04:50:20;;;;;;;85.15;45.97;;;;;;;21.27;43.58;101744.34;4214603;28;20105;-64
2022/04/13 04:52:21;;;;;;;74.22;42.60;;;;;;;21.28;43.50;101743.22;4214260;28;20089;-64
2022/04/13 04:54:25;;;;;;;80.75;45.58;;;;;;;21.24;43.46;101736.50;4200040;28;20385;-64
2022/04/13 04:56:26;;;;;;;90.97;53.05;;;;;;;21.27;43.59;101744.34;4197530;28;20078;-64
2022/04/13 04:58:28;;;;;;;92.03;49.83;;;;;;;21.28;43.25;101743.22;4198474;28;20062;-64
2022/04/13 05:00:35;;;;;;;81.10;45.72;;;;;;;21.28;43.40;101743.22;4199864;28;20036;-64
2022/04/13 05:02:37;;;;;;;68.65;41.25;;;;;;;21.27;43.10;101749.91;4214384;28;20544;-64
2022/04/13 05:04:38;;;;;;;67.00;39.00;;;;;;;21.26;43.20;101748.22;4214519;28;20092;-64
2022/04/13 05:06:40;;;;;;;70.90;41.20;;;;;;;21.28;43.25;101747.94;4214726;28;20089;-64
2022/04/13 05:08:41;;;;;;;69.95;41.55;;;;;;;21.28;43.34;101746.00;4213560;28;20086;-64
2022/04/13 05:10:47;;;;;;;72.38;39.67;;;;;;;21.24;43.51;101735.66;4214347;28;20429;-63
2022/04/13 05:12:56;;;;;;;66.80;39.25;;;;;;;21.27;43.51;101741.56;4215066;28;20027;-64
2022/04/13 05:14:58;;;;;;;68.82;41.10;;;;;;;21.21;43.40;101731.47;4214154;28;20047;-65
2022/04/13 05:16:59;;;;;;;75.28;43.08;;;;;;;21.27;43.02;101740.72;4214358;28;20086;-64
2022/04/13 05:19:01;;;;;;;73.95;42.15;;;;;;;21.28;43.29;101737.66;4214144;28;20044;-64
2022/04/13 05:21:03;;;;;;;70.35;40.05;;;;;;;21.28;43.33;101740.44;4206614;28;20036;-65
2022/04/13 05:23:04;;;;;;;66.72;40.15;;;;;;;21.28;43.16;101736.81;4212328;28;20040;-64
2022/04/13 05:25:13;;;;;;;62.90;39.40;;;;;;;21.27;43.55;101741.56;4212753;28;20040;-65
2022/04/13 05:27:15;;;;;;;66.47;39.78;;;;;;;21.26;43.51;101734.31;4212210;28;20044;-64
2022/04/13 05:29:18;;;;;;;62.88;38.92;;;;;;;21.27;43.31;101738.75;4214341;28;20077;-64
2022/04/13 05:31:20;;;;;;;77.80;42.20;;;;;;;21.27;43.40;101738.75;4214702;28;20093;-64
2022/04/13 05:33:22;;;;;;;65.47;37.47;;;;;;;21.27;43.12;101732.38;4213479;28;20047;-65
2022/04/13 05:35:33;;;;;;;60.17;38.33;;;;;;;21.27;43.46;101733.19;4213887;28;20097;-64
2022/04/13 05:37:34;;;;;;;67.70;37.67;;;;;;;21.28;43.42;101742.38;4214690;28;20036;-64
2022/04/13 05:39:38;;;;;;;63.53;37.22;;;;;;;21.27;43.38;101735.97;4214129;28;20036;-64
2022/04/13 05:41:40;;;;;;;63.35;37.55;;;;;;;21.28;43.40;101729.31;4212727;28;20085;-65
2022/04/13 05:43:41;;;;;;;69.25;36.92;;;;;;;21.26;43.07;101716.78;4214679;28;20024;-64
2022/04/13 05:45:43;;;;;;;60.50;37.63;;;;;;;21.27;43.27;101718.44;4213746;28;20035;-65
2022/04/13 05:47:44;;;;;;;63.10;36.63;;;;;;;21.25;43.38;101709.50;4212367;28;20040;-64
2022/04/13 05:49:46;;;;;;;60.72;35.72;;;;;;;21.25;42.99;101703.94;4213853;28;20040;-64
2022/04/13 05:51:47;;;;;;;56.83;35.20;;;;;;;21.12;42.85;101690.44;4213825;28;20040;-64
2022/04/13 05:53:48;;;;;;;57.58;36.17;;;;;;;21.24;43.15;101708.66;4214362;28;20028;-64
2022/04/13 05:55:55;;;;;;;62.50;36.70;;;;;;;21.22;43.13;101710.88;4214181;28;20032;-64
2022/04/13 05:57:58;;;;;;;54.00;34.03;;;;;;;21.25;43.06;101710.34;4212965;28;20041;-64
2022/04/13 05:59:59;;;;;;;58.35;34.33;;;;;;;21.18;42.89;101701.38;4213854;28;20040;-65
2022/04/13 06:02:04;;;;;;;56.38;32.47;;;;;;;21.25;43.26;101703.94;4213896;28;20598;-64
2022/04/13 06:04:05;;;;;;;;;;;;;;;21.22;43.45;101694.19;4214330;28;20093;-64
2022/04/13 06:06:07;;;;;;;54.53;33.20;;;;;;;21.23;42.76;101678.31;4215803;28;20355;-63
2022/04/13 06:08:08;;;;;;;56.00;33.35;;;;;;;21.28;43.07;101681.97;4217009;28;20044;-63
2022/04/13 06:10:12;;;;;;;55.88;32.05;;;;;;;21.17;42.74;101665.47;4216080;28;20097;-63
2022/04/13 06:12:22;;;;;;;54.00;33.13;;;;;;;21.25;43.21;101688.06;4217017;28;20097;-63
2022/04/13 06:14:23;;;;;;;54.80;34.92;;;;;;;21.22;43.11;101683.06;4217059;28;20036;-63
2022/04/13 06:16:24;;;;;;;51.53;31.60;;;;;;;21.16;43.01;101664.59;4216769;28;20093;-64
2022/04/13 06:18:26;;;;;;;52.55;33.20;;;;;;;21.24;42.79;101680.81;4217632;28;20101;-63
2022/04/13 06:20:27;;;;;;;51.05;32.55;;;;;;;21.24;43.21;101683.59;4216871;28;20093;-64
2022/04/13 06:22:32;;;;;;;58.30;33.60;;;;;;;21.22;43.01;101673.88;4216902;28;20052;-63
2022/04/13 06:24:37;;;;;;;52.75;31.10;;;;;;;21.16;43.09;101661.81;4216577;28;20040;-63
2022/04/13 06:26:38;;;;;;;51.22;32.35;;;;;;;21.21;42.79;101670.25;4217013;28;20441;-63
2022/04/13 06:28:40;;;;;;;49.33;30.67;;;;;;;21.24;43.08;101672.47;4214148;28;20093;-63
2022/04/13 06:30:43;;;;;;;50.38;31.00;;;;;;;21.24;42.83;101669.69;4216777;28;20043;-63
2022/04/13 06:32:48;;;;;;;52.30;31.45;;;;;;;21.24;43.04;101657.72;4216958;28;20048;-63
2022/04/13 06:34:50;;;;;;;49.15;31.10;;;;;;;21.23;43.17;101664.41;4216694;28;20047;-63
2022/04/13 06:36:51;;;;;;;47.50;30.00;;;;;;;21.23;42.96;101662.47;4215084;28;20043;-64
2022/04/13 06:38:58;;;;;;;48.65;30.10;;;;;;;21.24;43.14;101655.78;4216649;28;20048;-64
2022/04/13 06:41:05;;;;;;;46.30;29.38;;;;;;;21.16;43.11;101639.56;4216752;28;20413;-63
2022/04/13 06:43:06;;;;;;;47.78;29.10;;;;;;;21.23;43.14;101651.31;4217169;28;20032;-66
2022/04/13 06:45:10;;;;;;;50.53;29.48;;;;;;;21.23;42.82;101651.31;4216750;28;20036;-63
2022/04/13 06:47:12;;;;;;;48.10;29.20;;;;;;;21.23;43.27;101645.75;4216554;28;20360;-63
2022/04/13 06:49:16;;;;;;;46.97;29.20;;;;;;;21.23;42.69;101640.19;4217105;28;20024;-64
2022/04/13 06:51:18;;;;;;;46.33;29.15;;;;;;;21.22;43.00;101644.09;4216219;28;20040;-64
2022/04/13 06:53:19;;;;;;;43.47;27.27;;;;;;;21.24;43.14;101641.84;4216361;28;20531;-65
2022/04/13 06:55:37;;;;;;;45.13;27.83;;;;;;;21.23;43.16;101645.75;4215670;28;20548;-65
2022/04/13 06:57:41;;;;;;;45.25;28.13;;;;;;;21.24;43.08;101646.59;4216379;28;20040;-65
2022/04/13 06:59:43;;;;;;;45.35;28.27;;;;;;;21.17;42.88;101641.25;4215940;28;20040;-66
2022/04/13 07:01:47;;;;;;;44.08;27.35;;;;;;;21.24;43.29;101650.22;4215869;28;20540;-65
2022/04/13 07:03:48;;;;;;;41.92;26.75;;;;;;;21.23;42.74;101644.91;4216366;28;20040;-64
2022/04/13 07:05:50;;;;;;;42.58;26.20;;;;;;;21.21;43.18;101639.63;4210211;28;20098;-64
2022/04/13 07:07:51;;;;;;;41.35;26.80;;;;;;;21.15;42.75;101626.75;4216226;28;20097;-65
2022/04/13 07:09:52;;;;;;;43.22;26.40;;;;;;;21.16;43.28;101617.28;4214847;28;20040;-65
2022/04/13 07:12:00;;;;;;;41.72;27.08;;;;;;;21.19;42.83;101627.91;4216550;28;20106;-65
2022/04/13 07:14:01;;;;;;;40.20;26.27;;;;;;;21.23;42.75;101629.06;4216701;28;20024;-66
2022/04/13 07:16:03;;;;;;;40.10;25.10;;;;;;;21.24;43.16;101632.66;4215438;28;20036;-65
2022/04/13 07:18:07;;;;;;;48.95;26.70;;;;;;;21.16;43.05;101620.06;4215239;28;20102;-65
2022/04/13 07:20:09;;;;;;;39.90;24.30;;;;;;;21.18;43.15;101630.97;4216190;28;20040;-65
2022/04/13 07:22:10;;;;;;;40.65;24.48;;;;;;;21.19;42.69;101633.47;4216356;28;20093;-65
2022/04/13 07:24:12;;;;;;;37.38;24.27;;;;;;;21.24;43.05;101633.50;4216012;28;20032;-65
2022/04/13 07:26:13;;;;;;;40.15;23.77;;;;;;;21.23;42.69;101629.06;4215639;28;20093;-65
2022/04/13 07:28:15;;;;;;;40.90;25.67;;;;;;;21.23;42.65;101628.22;4203666;28;20052;-64
2022/04/13 07:30:21;;;;;;;41.03;23.40;;;;;;;21.23;43.24;101634.63;4199002;28;20045;-65
2022/04/13 07:32:23;;;;;;;39.53;24.40;;;;;;;21.24;42.76;101630.72;4199085;28;20488;-65
2022/04/13 07:34:24;;;;;;;38.35;22.42;;;;;;;21.23;42.90;101634.63;4199149;28;20036;-65
2022/04/13 07:36:25;;;;;;;37.53;22.25;;;;;;;21.23;43.11;101639.34;4188645;28;20376;-65
2022/04/13 07:38:27;;;;;;;37.22;22.60;;;;;;;21.24;42.80;101641.84;4199266;28;20036;-65
2022/04/13 07:40:28;;;;;;;34.95;22.40;;;;;;;21.24;42.91;101641.84;4200037;28;20048;-65
2022/04/13 07:42:33;;;;;;;35.25;22.45;;;;;;;21.24;42.97;101635.47;4199464;28;20033;-65
2022/04/13 07:44:34;;;;;;;34.70;22.25;;;;;;;21.24;42.65;101636.28;4201383;28;20105;-65
2022/04/13 07:46:36;;;;;;;31.50;21.30;;;;;;;21.24;42.55;101635.47;4216544;28;20090;-65
2022/04/13 07:48:40;;;;;;;35.47;20.98;;;;;;;21.24;42.68;101633.50;4216182;28;20078;-65
2022/04/13 07:50:47;;;;;;;31.10;20.27;;;;;;;21.24;42.52;101632.66;4215514;28;20457;-66
2022/04/13 07:52:48;;;;;;;34.53;20.70;;;;;;;21.24;42.55;101649.38;4215497;28;20032;-65
2022/04/13 07:54:50;;;;;;;31.63;19.75;;;;;;;21.23;42.54;101656.88;4212907;28;20044;-65
2022/04/13 07:56:51;;;;;;;34.85;21.05;;;;;;;21.24;42.66;101663.28;4215482;28;20117;-65
2022/04/13 07:58:52;;;;;;;32.67;21.63;;;;;;;21.23;42.78;101673.59;4215478;28;20040;-65
2022/04/13 08:00:54;;;;;;;32.63;20.95;;;;;;;21.17;42.70;101671.88;4215770;28;20048;-65
2022/04/13 08:02:55;;;;;;;30.02;18.00;;;;;;;21.21;42.81;101681.38;4199784;28;20048;-65
2022/04/13 08:04:56;;;;;;;33.95;20.23;;;;;;;21.12;42.87;101671.84;4198743;28;20098;-65
2022/04/13 08:06:58;;;;;;;28.83;18.77;;;;;;;21.23;42.81;101681.09;4198864;28;20098;-65
2022/04/13 08:09:01;;;;;;;27.92;17.65;;;;;;;21.23;42.70;101676.38;4198834;28;20709;-65
2022/04/13 08:11:03;;;;;;;27.60;18.73;;;;;;;21.23;42.62;101673.59;4198669;28;20045;-65
2022/04/13 08:13:04;;;;;;;30.48;17.95;;;;;;;21.23;42.84;101681.09;4198432;28;20123;-66
2022/04/13 08:15:07;;;;;;;28.45;18.05;;;;;;;21.13;42.89;101667.94;4198611;28;20536;-65
2022/04/13 08:17:12;;;;;;;26.80;16.85;;;;;;;21.23;42.91;101683.88;4198484;28;20032;-65
2022/04/13 08:19:20;;;;;;;30.25;17.63;;;;;;;21.22;43.06;101683.06;4201245;28;20036;-66
2022/04/13 08:21:21;;;;;;;27.08;17.13;;;;;;;21.23;42.81;101695.03;4214276;28;20048;-65
2022/04/13 08:23:22;;;;;;;31.02;16.98;;;;;;;21.22;42.75;101688.63;4214952;28;20520;-64
2022/04/13 08:25:44;;;;;;;25.77;16.92;;;;;;;21.23;42.46;101692.25;4214670;28;20043;-65
2022/04/13 08:27:48;;;;;;;26.08;17.17;;;;;;;21.14;42.84;101675.19;4212998;28;20044;-65
2022/04/13 08:29:53;;;;;;;25.20;16.67;;;;;;;21.09;42.61;101658.44;4215090;28;20039;-65
2022/04/13 08:31:57;;;;;;;;;;;;;;;21.21;43.09;101681.38;4212956;28;20044;-65
2022/04/13 08:33:58;;;;;;;26.63;16.80;;;;;;;21.27;42.65;101677.53;4214937;28;19912;-65
2022/04/13 08:36:00;;;;;;;28.58;17.50;;;;;;;21.21;42.55;101663.81;4214619;28;20090;-64
2022/04/13 08:38:04;;;;;;;26.33;16.33;;;;;;;21.25;42.42;101674.16;4215353;28;20109;-64
2022/04/13 08:40:06;;;;;;;24.17;16.20;;;;;;;21.24;42.69;101664.13;4213870;28;20044;-64
2022/04/13 08:42:26;;;;;;;25.05;16.27;;;;;;;21.15;42.68;101646.25;4214841;28;20065;-64
2022/04/13 08:44:40;;;;;;;24.27;14.98;;;;;;;21.22;42.86;101654.38;4214436;28;20043;-63
2022/04/13 08:46:47;;;;;;;25.17;15.25;;;;;;;21.21;42.67;101647.97;4215275;28;20024;-64
2022/04/13 08:48:52;;;;;;;24.02;14.68;;;;;;;21.22;42.93;101654.38;4214779;28;20457;-63
2022/04/13 08:51:02;;;;;;;22.13;14.77;;;;;;;21.20;42.88;101646.28;4214728;28;20078;-64
2022/04/13 08:53:12;;;;;;;24.15;14.10;;;;;;;21.20;42.76;101651.84;4215156;28;20093;-64
2022/04/13 08:55:16;;;;;;;20.17;12.73;;;;;;;21.20;42.48;101643.50;4213270;28;20044;-64
2022/04/13 08:57:21;;;;;;;21.75;14.65;;;;;;;21.21;42.77;101647.13;4214176;28;20540;-64
2022/04/13 08:59:27;;;;;;;20.92;14.30;;;;;;;21.20;42.87;101643.50;4215150;28;20032;-64
2022/04/13 09:01:41;;;;;;;20.35;14.10;;;;;;;21.20;42.68;101640.72;4214525;28;20441;-64
2022/04/13 09:03:48;;;;;;;23.50;14.30;;;;;;;21.19;42.72;101630.69;4214460;28;20433;-65
2022/04/13 09:05:55;;;;;;;23.20;14.20;;;;;;;21.20;42.80;101635.13;4214332;28;20433;-64
2022/04/13 09:08:09;;;;;;;18.95;12.18;;;;;;;21.19;42.67;101630.69;4214430;28;20415;-63
2022/04/13 09:10:19;;;;;;;21.48;12.55;;;;;;;21.20;42.98;101628.75;4214954;28;20077;-63
2022/04/13 09:12:20;;;;;;;22.33;13.73;;;;;;;21.20;42.63;101624.00;4213671;28;20043;-63
2022/04/13 09:14:22;;;;;;;17.80;12.00;;;;;;;21.19;42.84;101616.78;4214839;28;20596;-64
2022/04/13 09:16:27;;;;;;;18.48;11.88;;;;;;;21.19;43.02;101621.50;4214043;28;20039;-64
2022/04/13 09:18:28;;;;;;;17.65;11.73;;;;;;;21.19;42.76;101616.78;4214323;28;20093;-64
2022/04/13 09:20:32;;;;;;;18.23;12.30;;;;;;;21.18;42.93;101617.88;4214647;28;20028;-64
2022/04/13 09:22:34;;;;;;;17.70;11.30;;;;;;;21.16;42.85;101608.94;4214704;28;20066;-64
2022/04/13 09:24:38;;;;;;;17.75;11.73;;;;;;;21.10;43.01;101598.06;4213993;28;20052;-64
2022/04/13 09:26:40;;;;;;;18.35;11.63;;;;;;;21.18;43.10;101612.31;4214106;28;20032;-64